createdAt,value
2023-03-11T00:00:22.858Z,17.88
2023-03-11T00:02:52.282Z,16.25
2023-03-11T00:05:29.492Z,17.23
2023-03-11T00:07:57.382Z,14.85
2023-03-11T00:10:37.301Z,12.43
2023-03-11T00:13:06.303Z,16.50
2023-03-11T00:15:34.384Z,11.45
2023-03-11T00:18:02.280Z,16.63
2023-03-11T00:20:32.428Z,13.95
2023-03-11T00:23:00.607Z,14.57
2023-03-11T00:25:30.400Z,14.15
2023-03-11T00:27:58.698Z,15.23
2023-03-11T00:30:27.091Z,15.70
2023-03-11T00:32:56.318Z,14.60
2023-03-11T00:35:27.252Z,11.70
2023-03-11T00:37:57.391Z,17.67
2023-03-11T00:40:27.017Z,15.88
2023-03-11T00:42:54.448Z,18.02
2023-03-11T00:45:22.292Z,14.02
2023-03-11T00:47:50.774Z,13.85
2023-03-11T00:50:21.005Z,19.45
2023-03-11T00:52:49.407Z,11.35
2023-03-11T00:55:21.092Z,22.45
2023-03-11T00:57:51.160Z,18.50
2023-03-11T01:00:20.401Z,13.05
2023-03-11T01:02:47.706Z,11.52
2023-03-11T01:05:15.389Z,12.70
2023-03-11T01:07:45.785Z,11.18
2023-03-11T01:10:14.252Z,16.77
2023-03-11T01:12:42.304Z,13.13
2023-03-11T01:15:19.485Z,13.80
2023-03-11T01:17:46.933Z,10.80
2023-03-11T01:20:14.613Z,14.10
2023-03-11T01:22:43.052Z,12.55
2023-03-11T01:25:14.066Z,8.63
2023-03-11T01:27:41.519Z,10.65
2023-03-11T01:30:10.098Z,16.80
2023-03-11T01:32:37.945Z,10.27
2023-03-11T01:35:05.594Z,10.88
2023-03-11T01:37:32.891Z,8.65
2023-03-11T01:40:00.164Z,17.35
2023-03-11T01:42:27.462Z,13.45
2023-03-11T01:44:55.626Z,17.38
2023-03-11T01:47:39.894Z,15.75
2023-03-11T01:50:12.700Z,17.80
2023-03-11T01:52:42.535Z,9.63
2023-03-11T01:55:12.335Z,16.48
2023-03-11T01:57:42.477Z,13.82
2023-03-11T02:00:11.981Z,20.70
2023-03-11T02:02:48.363Z,14.90
2023-03-11T02:05:16.826Z,13.70
2023-03-11T02:07:44.256Z,15.25
2023-03-11T02:10:13.703Z,20.55
2023-03-11T02:12:41.633Z,15.77
2023-03-11T02:15:10.659Z,12.20
2023-03-11T02:17:39.972Z,14.82
2023-03-11T02:20:16.530Z,18.05
2023-03-11T02:22:44.599Z,19.63
2023-03-11T02:25:35.277Z,14.52
2023-03-11T02:28:05.656Z,18.83
2023-03-11T02:30:35.016Z,16.00
2023-03-11T02:33:04.176Z,15.45
2023-03-11T02:35:31.713Z,19.20
2023-03-11T02:37:59.078Z,22.50
2023-03-11T02:40:46.312Z,18.08
2023-03-11T02:43:15.976Z,17.10
2023-03-11T02:45:46.035Z,12.93
2023-03-11T02:48:14.765Z,23.70
2023-03-11T02:50:42.317Z,18.23
2023-03-11T02:53:10.150Z,22.40
2023-03-11T02:55:37.536Z,21.25
2023-03-11T02:58:04.825Z,23.25
2023-03-11T03:00:32.414Z,14.32
2023-03-11T03:03:00.590Z,21.70
2023-03-11T03:05:28.229Z,21.08
2023-03-11T03:07:55.556Z,15.30
2023-03-11T03:10:22.974Z,18.75
2023-03-11T03:12:50.463Z,21.60
2023-03-11T03:15:17.864Z,16.08
2023-03-11T03:17:46.288Z,19.17
2023-03-11T03:20:14.344Z,16.45
2023-03-11T03:22:42.208Z,14.27
2023-03-11T03:25:10.871Z,19.88
2023-03-11T03:27:38.280Z,18.17
2023-03-11T03:30:07.082Z,19.27
2023-03-11T03:32:34.981Z,20.92
2023-03-11T03:35:02.988Z,16.40
2023-03-11T03:37:34.529Z,18.70
2023-03-11T03:40:02.604Z,17.90
2023-03-11T03:42:30.164Z,17.63
2023-03-11T03:44:57.457Z,21.38
2023-03-11T03:47:24.778Z,16.73
2023-03-11T03:49:52.135Z,16.95
2023-03-11T03:52:19.423Z,14.48
2023-03-11T03:54:47.773Z,18.88
2023-03-11T03:57:15.132Z,17.98
2023-03-11T03:59:45.065Z,16.58
2023-03-11T04:02:12.581Z,21.63
2023-03-11T04:04:40.137Z,23.10
2023-03-11T04:07:07.520Z,24.98
2023-03-11T04:09:34.908Z,15.48
2023-03-11T04:12:02.184Z,17.48
2023-03-11T04:14:29.915Z,22.58
2023-03-11T04:16:58.465Z,17.33
2023-03-11T04:19:26.243Z,15.90
2023-03-11T04:21:53.587Z,18.90
2023-03-11T04:24:21.098Z,25.25
2023-03-11T04:26:48.379Z,17.95
2023-03-11T04:29:15.726Z,18.98
2023-03-11T04:31:42.991Z,18.10
2023-03-11T04:34:10.394Z,15.02
2023-03-11T04:36:37.674Z,21.73
2023-03-11T04:39:04.941Z,18.35
2023-03-11T04:41:32.198Z,23.92
2023-03-11T04:44:00.411Z,17.17
2023-03-11T04:46:28.061Z,18.10
2023-03-11T04:48:55.391Z,20.02
2023-03-11T04:51:23.059Z,12.75
2023-03-11T04:53:50.320Z,12.52
2023-03-11T04:56:17.561Z,21.35
2023-03-11T04:58:44.886Z,17.65
2023-03-11T05:01:12.179Z,18.52
2023-03-11T05:03:39.527Z,18.70
2023-03-11T05:06:06.965Z,20.95
2023-03-11T05:08:34.244Z,16.05
2023-03-11T05:11:01.548Z,27.17
2023-03-11T05:13:30.434Z,16.95
2023-03-11T05:15:57.725Z,17.30
2023-03-11T05:18:25.129Z,24.83
2023-03-11T05:20:53.494Z,18.75
2023-03-11T05:23:20.961Z,14.82
2023-03-11T05:25:49.332Z,21.38
2023-03-11T05:28:17.618Z,13.43
2023-03-11T05:30:44.903Z,14.60
2023-03-11T05:33:12.233Z,15.20
2023-03-11T05:38:24.087Z,14.75
2023-03-11T05:40:51.584Z,18.35
2023-03-11T05:43:18.935Z,19.73
2023-03-11T05:45:46.316Z,18.60
2023-03-11T05:48:14.026Z,20.45
2023-03-11T05:50:41.902Z,20.50
2023-03-11T05:53:09.198Z,16.02
2023-03-11T05:55:36.465Z,16.25
2023-03-11T05:58:03.814Z,16.17
2023-03-11T06:00:32.126Z,15.02
2023-03-11T06:02:59.388Z,17.77
2023-03-11T06:05:27.957Z,11.52
2023-03-11T06:07:57.735Z,13.25
2023-03-11T06:10:25.016Z,14.70
2023-03-11T06:12:52.254Z,16.00
2023-03-11T06:15:19.513Z,20.17
2023-03-11T06:17:47.213Z,16.70
2023-03-11T06:20:14.845Z,15.80
2023-03-11T06:22:42.171Z,15.35
2023-03-11T06:25:11.233Z,18.15
2023-03-11T06:27:38.567Z,14.38
2023-03-11T06:30:06.356Z,18.52
2023-03-11T06:32:35.468Z,17.27
2023-03-11T06:35:03.520Z,16.90
2023-03-11T06:37:31.201Z,19.65
2023-03-11T06:39:59.955Z,19.67
2023-03-11T06:42:27.224Z,16.70
2023-03-11T06:44:54.522Z,20.52
2023-03-11T06:47:21.814Z,16.60
2023-03-11T06:49:51.287Z,15.68
2023-03-11T06:52:19.002Z,17.00
2023-03-11T06:54:47.150Z,16.30
2023-03-11T06:57:14.450Z,18.70
2023-03-11T06:59:41.708Z,16.42
2023-03-11T07:02:13.711Z,21.10
2023-03-11T07:04:40.996Z,16.42
2023-03-11T07:07:08.376Z,19.63
2023-03-11T07:09:35.894Z,13.05
2023-03-11T07:12:06.665Z,14.25
2023-03-11T07:14:34.156Z,13.40
2023-03-11T07:17:01.928Z,17.00
2023-03-11T07:19:29.763Z,16.67
2023-03-11T07:21:57.189Z,16.42
2023-03-11T07:24:24.478Z,14.32
2023-03-11T07:26:51.793Z,19.42
2023-03-11T07:29:20.300Z,18.35
2023-03-11T07:31:47.695Z,12.15
2023-03-11T07:34:15.343Z,16.67
2023-03-11T07:36:44.458Z,18.60
2023-03-11T07:39:16.239Z,13.63
2023-03-11T07:41:44.051Z,19.00
2023-03-11T07:44:13.406Z,14.68
2023-03-11T07:46:40.956Z,14.95
2023-03-11T07:49:09.517Z,14.30
2023-03-11T07:51:38.481Z,16.27
2023-03-11T07:54:05.949Z,23.15
2023-03-11T07:56:35.119Z,21.20
2023-03-11T07:59:04.418Z,21.15
2023-03-11T08:01:36.878Z,21.10
2023-03-11T08:04:06.181Z,15.43
2023-03-11T08:06:36.427Z,16.65
2023-03-11T08:09:07.837Z,14.20
2023-03-11T08:11:37.572Z,22.88
2023-03-11T08:14:05.770Z,13.13
2023-03-11T08:16:34.118Z,21.73
2023-03-11T08:19:01.886Z,25.65
2023-03-11T08:21:32.160Z,17.50
2023-03-11T08:24:01.877Z,28.08
2023-03-11T08:26:30.092Z,17.33
2023-03-11T08:28:58.534Z,23.00
2023-03-11T08:31:28.962Z,15.57
2023-03-11T08:34:02.798Z,25.33
2023-03-11T08:36:31.707Z,21.90
2023-03-11T08:38:59.570Z,16.52
2023-03-11T08:41:27.941Z,20.27
2023-03-11T08:43:55.657Z,13.75
2023-03-11T08:46:32.006Z,13.55
2023-03-11T08:51:30.013Z,18.33
2023-03-11T08:53:57.527Z,14.82
2023-03-11T08:56:25.210Z,13.55
2023-03-11T08:58:52.787Z,15.23
2023-03-11T09:01:23.822Z,11.05
2023-03-11T09:03:52.309Z,15.70
2023-03-11T09:06:19.929Z,15.65
2023-03-11T09:08:48.463Z,16.30
2023-03-11T09:11:16.865Z,13.40
2023-03-11T09:13:44.353Z,13.38
2023-03-11T09:16:17.798Z,12.02
2023-03-11T09:18:45.497Z,18.60
2023-03-11T09:21:13.297Z,13.43
2023-03-11T09:23:43.974Z,14.98
2023-03-11T09:26:12.744Z,17.23
2023-03-11T09:28:42.509Z,10.82
2023-03-11T09:31:10.036Z,8.55
2023-03-11T09:33:39.986Z,8.90
2023-03-11T09:36:08.263Z,11.38
2023-03-11T09:38:35.755Z,15.95
2023-03-11T09:41:18.707Z,11.77
2023-03-11T09:44:01.412Z,11.98
2023-03-11T09:47:18.616Z,9.70
2023-03-11T09:50:07.100Z,12.70
2023-03-11T09:52:43.267Z,18.48
2023-03-11T09:56:09.055Z,16.77
2023-03-11T09:58:53.324Z,13.52
2023-03-11T10:01:26.483Z,11.68
2023-03-11T10:03:58.733Z,11.63
2023-03-11T10:06:30.530Z,7.82
2023-03-11T10:09:13.988Z,6.82
2023-03-11T10:12:08.507Z,15.32
2023-03-11T10:14:54.520Z,14.38
2023-03-11T10:17:50.592Z,7.13
2023-03-11T10:20:32.951Z,7.30
2023-03-11T10:23:00.331Z,7.90
2023-03-11T10:25:37.243Z,8.90
2023-03-11T10:28:13.761Z,6.88
2023-03-11T10:30:48.117Z,10.88
2023-03-11T10:33:30.491Z,6.68
2023-03-11T10:36:05.030Z,9.45
2023-03-11T10:38:42.304Z,12.93
2023-03-11T10:41:30.206Z,3.38
2023-03-11T10:44:07.561Z,6.78
2023-03-11T10:46:34.834Z,6.05
2023-03-11T10:49:02.397Z,13.45
2023-03-11T10:51:35.607Z,8.55
2023-03-11T10:54:04.262Z,11.25
2023-03-11T10:56:39.820Z,8.82
2023-03-11T10:59:24.936Z,6.23
2023-03-11T11:01:59.245Z,6.88
2023-03-11T11:04:38.591Z,7.50
2023-03-11T11:07:32.190Z,7.30
2023-03-11T11:10:17.980Z,12.02
2023-03-11T11:12:59.509Z,6.72
2023-03-11T11:15:29.172Z,8.95
2023-03-11T11:18:02.259Z,9.63
2023-03-11T11:20:31.262Z,6.28
2023-03-11T11:23:03.936Z,4.00
2023-03-11T11:25:41.058Z,15.88
2023-03-11T11:28:18.915Z,7.82
2023-03-11T11:31:25.798Z,6.07
2023-03-11T11:33:55.275Z,9.45
2023-03-11T11:36:29.579Z,5.60
2023-03-11T11:38:59.341Z,7.43
2023-03-11T11:41:29.341Z,8.77
2023-03-11T11:44:05.911Z,7.78
2023-03-11T11:46:41.758Z,6.55
2023-03-11T11:49:19.267Z,5.38
2023-03-11T11:52:15.625Z,8.35
2023-03-11T11:55:07.937Z,8.20
2023-03-11T11:57:35.268Z,10.05
2023-03-11T12:00:05.980Z,7.00
2023-03-11T12:02:53.655Z,4.70
2023-03-11T12:05:30.892Z,3.70
2023-03-11T12:08:24.991Z,10.57
2023-03-11T12:10:58.555Z,10.30
2023-03-11T12:13:51.002Z,8.23
2023-03-11T12:16:38.741Z,4.68
2023-03-11T12:19:12.294Z,8.65
2023-03-11T12:22:06.142Z,9.35
2023-03-11T12:25:01.412Z,10.23
2023-03-11T12:27:50.141Z,6.78
2023-03-11T12:30:27.212Z,5.60
2023-03-11T12:33:02.390Z,11.02
2023-03-11T12:35:33.519Z,13.23
2023-03-11T12:38:21.071Z,10.18
2023-03-11T12:40:50.762Z,8.93
2023-03-11T12:43:29.984Z,9.90
2023-03-11T12:46:01.062Z,7.20
2023-03-11T12:48:34.068Z,5.50
2023-03-11T12:51:02.555Z,5.93
2023-03-11T12:53:52.135Z,5.03
2023-03-11T12:56:28.673Z,4.63
2023-03-11T12:59:13.135Z,4.47
2023-03-11T13:02:21.004Z,2.90
2023-03-11T13:04:58.064Z,2.15
2023-03-11T13:07:49.504Z,3.78
2023-03-11T13:10:35.273Z,2.47
2023-03-11T13:13:25.599Z,8.15
2023-03-11T13:15:53.554Z,7.82
2023-03-11T13:18:32.945Z,6.07
2023-03-11T13:21:01.970Z,9.60
2023-03-11T13:23:38.113Z,6.57
2023-03-11T13:26:23.949Z,6.68
2023-03-11T13:28:59.782Z,7.20
2023-03-11T13:31:38.900Z,5.97
2023-03-11T13:34:47.149Z,4.40
2023-03-11T13:37:33.240Z,5.70
2023-03-11T13:40:32.348Z,7.50
2023-03-11T13:43:26.149Z,9.50
2023-03-11T13:46:04.245Z,5.38
2023-03-11T13:48:37.965Z,4.47
2023-03-11T13:51:13.611Z,6.38
2023-03-11T13:53:45.086Z,7.53
2023-03-11T13:56:29.019Z,5.53
2023-03-11T13:59:16.477Z,3.03
2023-03-11T14:01:52.725Z,8.38
2023-03-11T14:04:36.216Z,2.75
2023-03-11T14:07:31.756Z,8.05
2023-03-11T14:10:27.275Z,7.13
2023-03-11T14:13:17.309Z,4.03
2023-03-11T14:16:07.856Z,6.07
2023-03-11T14:18:38.478Z,3.22
2023-03-11T14:21:12.463Z,5.47
2023-03-11T14:23:48.710Z,6.43
2023-03-11T14:26:26.677Z,4.03
2023-03-11T14:28:59.659Z,8.80
2023-03-11T14:31:31.185Z,6.55
2023-03-11T14:34:04.640Z,3.60
2023-03-11T14:36:40.947Z,6.90
2023-03-11T14:39:30.940Z,10.35
2023-03-11T14:42:04.315Z,3.45
2023-03-11T14:44:40.480Z,5.45
2023-03-11T14:47:19.252Z,4.35
2023-03-11T14:49:49.061Z,8.55
2023-03-11T14:52:25.223Z,7.07
2023-03-11T14:54:54.425Z,2.47
2023-03-11T14:57:31.332Z,5.82
2023-03-11T14:59:59.262Z,5.05
2023-03-11T15:02:41.940Z,4.18
2023-03-11T15:05:26.953Z,5.80
2023-03-11T15:07:59.488Z,7.60
2023-03-11T15:10:26.818Z,7.68
2023-03-11T15:13:09.149Z,4.28
2023-03-11T15:15:36.690Z,7.28
2023-03-11T15:18:04.724Z,6.10
2023-03-11T15:20:35.504Z,7.97
2023-03-11T15:23:07.815Z,3.83
2023-03-11T15:25:38.530Z,3.92
2023-03-11T15:28:21.471Z,7.65
2023-03-11T15:30:49.062Z,10.65
2023-03-11T15:33:31.858Z,6.22
2023-03-11T15:35:59.197Z,6.60
2023-03-11T15:38:28.500Z,7.80
2023-03-11T15:41:01.257Z,4.68
2023-03-11T15:43:32.865Z,6.03
2023-03-11T15:46:02.891Z,5.10
2023-03-11T15:48:31.281Z,7.10
2023-03-11T15:50:59.754Z,9.50
2023-03-11T15:53:28.910Z,4.60
2023-03-11T15:56:06.874Z,3.28
2023-03-11T15:58:37.135Z,3.85
2023-03-11T16:01:04.579Z,5.07
2023-03-11T16:03:32.093Z,6.40
2023-03-11T16:05:59.673Z,5.75
2023-03-11T16:08:29.737Z,5.25
2023-03-11T16:10:58.990Z,3.88
2023-03-11T16:13:26.411Z,8.35
2023-03-11T16:15:53.802Z,12.15
2023-03-11T16:18:23.421Z,7.70
2023-03-11T16:20:53.097Z,5.82
2023-03-11T16:23:26.439Z,6.53
2023-03-11T16:25:58.956Z,6.00
2023-03-11T16:28:26.425Z,3.83
2023-03-11T16:30:53.829Z,4.32
2023-03-11T16:33:21.155Z,5.47
2023-03-11T16:35:48.697Z,6.22
2023-03-11T16:38:17.804Z,10.40
2023-03-11T16:40:45.731Z,5.63
2023-03-11T16:43:16.456Z,7.38
2023-03-11T16:45:43.697Z,8.02
2023-03-11T16:48:11.051Z,5.90
2023-03-11T16:50:38.443Z,8.77
2023-03-11T16:53:05.751Z,4.20
2023-03-11T16:55:33.734Z,4.90
2023-03-11T16:58:01.053Z,9.13
2023-03-11T17:00:28.603Z,5.95
2023-03-11T17:02:55.997Z,3.85
2023-03-11T17:05:23.327Z,6.70
2023-03-11T17:08:04.377Z,5.88
2023-03-11T17:10:38.237Z,6.25
2023-03-11T17:13:06.714Z,6.90
2023-03-11T17:15:35.368Z,5.78
2023-03-11T17:18:02.809Z,4.75
2023-03-11T17:20:30.187Z,3.85
2023-03-11T17:22:57.582Z,11.02
2023-03-11T17:25:24.862Z,6.18
2023-03-11T17:27:52.159Z,8.80
2023-03-11T17:30:35.706Z,3.78
2023-03-11T17:33:04.159Z,7.68
2023-03-11T17:35:31.814Z,9.18
2023-03-11T17:37:59.350Z,4.82
2023-03-11T17:40:27.175Z,8.75
2023-03-11T17:42:54.564Z,6.43
2023-03-11T17:45:21.879Z,9.82
2023-03-11T17:47:49.273Z,10.05
2023-03-11T17:50:17.524Z,6.28
2023-03-11T17:52:46.672Z,5.75
2023-03-11T17:55:14.114Z,6.63
2023-03-11T17:57:45.415Z,4.25
2023-03-11T18:00:14.950Z,4.22
2023-03-11T18:02:42.467Z,13.80
2023-03-11T18:05:09.944Z,7.32
2023-03-11T18:07:40.854Z,8.23
2023-03-11T18:10:09.163Z,5.55
2023-03-11T18:12:37.019Z,6.38
2023-03-11T18:15:08.267Z,8.70
2023-03-11T18:17:36.054Z,8.38
2023-03-11T18:20:04.723Z,9.13
2023-03-11T18:22:34.105Z,11.52
2023-03-11T18:25:02.589Z,7.20
2023-03-11T18:27:29.925Z,12.43
2023-03-11T18:29:57.177Z,12.50
2023-03-11T18:32:25.146Z,9.52
2023-03-11T18:34:53.628Z,7.65
2023-03-11T18:37:21.212Z,7.93
2023-03-11T18:39:48.568Z,13.65
2023-03-11T18:42:16.100Z,6.28
2023-03-11T18:44:43.448Z,8.93
2023-03-11T18:47:10.843Z,8.82
2023-03-11T18:49:38.230Z,4.82
2023-03-11T18:52:05.662Z,8.63
2023-03-11T18:54:32.983Z,13.55
2023-03-11T18:57:00.331Z,7.55
2023-03-11T18:59:27.973Z,9.10
2023-03-11T19:01:55.600Z,9.20
2023-03-11T19:04:23.111Z,12.18
2023-03-11T19:06:50.419Z,7.63
2023-03-11T19:09:20.966Z,7.95
2023-03-11T19:11:48.362Z,10.20
2023-03-11T19:14:15.764Z,6.53
2023-03-11T19:16:43.476Z,9.38
2023-03-11T19:19:12.078Z,10.60
2023-03-11T19:21:39.546Z,7.80
2023-03-11T19:24:09.518Z,13.05
2023-03-11T19:26:44.874Z,13.57
2023-03-11T19:29:15.459Z,15.80
2023-03-11T19:31:43.958Z,15.88
2023-03-11T19:34:11.571Z,10.60
2023-03-11T19:36:39.542Z,9.50
2023-03-11T19:39:07.647Z,7.30
2023-03-11T19:41:35.584Z,12.30
2023-03-11T19:44:04.354Z,10.52
2023-03-11T19:46:34.707Z,21.98
2023-03-11T19:49:03.523Z,13.63
2023-03-11T19:51:46.311Z,18.23
2023-03-11T19:54:16.767Z,14.88
2023-03-11T19:56:44.211Z,15.50
2023-03-11T19:59:11.873Z,14.80
2023-03-11T20:01:39.258Z,16.40
2023-03-11T20:04:06.657Z,20.00
2023-03-11T20:06:35.629Z,18.08
2023-03-11T20:09:02.973Z,21.05
2023-03-11T20:11:30.296Z,22.25
2023-03-11T20:13:58.003Z,26.67
2023-03-11T20:16:25.328Z,21.80
2023-03-11T20:19:00.161Z,27.10
2023-03-11T20:21:27.517Z,15.65
2023-03-11T20:23:55.831Z,21.33
2023-03-11T20:26:25.047Z,14.95
2023-03-11T20:28:56.153Z,22.30
2023-03-11T20:31:25.514Z,14.32
2023-03-11T20:33:59.155Z,14.55
2023-03-11T20:36:29.596Z,14.95
2023-03-11T20:38:57.396Z,14.25
2023-03-11T20:41:26.108Z,19.60
2023-03-11T20:43:57.532Z,16.23
2023-03-11T20:46:25.434Z,15.07
2023-03-11T20:48:52.927Z,14.25
2023-03-11T20:51:20.784Z,17.77
2023-03-11T20:57:08.824Z,19.25
2023-03-11T21:32:25.942Z,20.92
2023-03-11T21:34:58.066Z,23.40
2023-03-11T21:37:26.624Z,16.63
2023-03-11T22:37:25.378Z,21.98
2023-03-11T22:47:14.006Z,25.95
2023-03-11T22:57:20.808Z,22.58
2023-03-11T22:59:50.395Z,25.63
2023-03-11T23:03:08.409Z,23.00
2023-03-11T23:06:12.604Z,23.92
2023-03-11T23:08:39.935Z,24.08
2023-03-11T23:11:10.068Z,22.88
2023-03-11T23:14:06.886Z,25.30
2023-03-11T23:16:37.930Z,25.27
2023-03-11T23:30:03.718Z,24.45
2023-03-11T23:48:37.112Z,27.17
